createdAt,value
2018-08-28T00:01:38.878Z,17.30
2018-08-28T00:04:06.541Z,17.30
2018-08-28T00:06:34.314Z,17.30
2018-08-28T00:09:02.299Z,17.20
2018-08-28T00:11:30.029Z,17.20
2018-08-28T00:13:57.687Z,17.20
2018-08-28T00:16:25.486Z,17.10
2018-08-28T00:18:53.205Z,17.00
2018-08-28T00:21:20.889Z,17.00
2018-08-28T00:23:48.567Z,16.90
2018-08-28T00:26:16.423Z,16.90
2018-08-28T00:28:44.078Z,16.80
2018-08-28T00:31:11.810Z,16.80
2018-08-28T00:33:39.519Z,16.70
2018-08-28T00:36:07.237Z,16.70
2018-08-28T00:38:34.925Z,16.60
2018-08-28T00:41:02.674Z,16.50
2018-08-28T00:43:30.374Z,16.50
2018-08-28T00:45:58.092Z,16.50
2018-08-28T00:48:25.734Z,16.40
2018-08-28T00:50:53.397Z,16.40
2018-08-28T00:53:21.128Z,16.40
2018-08-28T00:55:48.897Z,16.40
2018-08-28T00:58:16.550Z,16.40
2018-08-28T01:00:44.565Z,16.30
2018-08-28T01:03:12.268Z,16.30
2018-08-28T01:05:39.909Z,16.30
2018-08-28T01:08:07.733Z,16.20
2018-08-28T01:10:35.448Z,16.20
2018-08-28T01:13:03.111Z,16.10
2018-08-28T01:15:30.829Z,16.20
2018-08-28T01:17:58.571Z,16.10
2018-08-28T01:20:26.206Z,16.10
2018-08-28T01:22:54.124Z,16.00
2018-08-28T01:25:21.953Z,16.00
2018-08-28T01:27:49.706Z,15.90
2018-08-28T01:30:22.073Z,15.90
2018-08-28T01:32:49.831Z,15.90
2018-08-28T01:35:17.663Z,15.90
2018-08-28T01:37:45.613Z,15.90
2018-08-28T01:40:13.306Z,16.00
2018-08-28T01:42:41.111Z,16.00
2018-08-28T01:45:09.005Z,16.00
2018-08-28T01:47:36.741Z,16.00
2018-08-28T01:50:04.745Z,15.90
2018-08-28T01:52:32.512Z,15.90
2018-08-28T01:55:00.169Z,15.90
2018-08-28T01:57:27.903Z,15.90
2018-08-28T01:59:55.578Z,15.90
2018-08-28T02:02:23.229Z,15.90
2018-08-28T02:04:50.993Z,15.90
2018-08-28T02:07:18.789Z,15.90
2018-08-28T02:09:46.501Z,15.90
2018-08-28T02:12:14.171Z,15.90
2018-08-28T02:14:41.972Z,15.80
2018-08-28T02:17:09.755Z,15.80
2018-08-28T02:19:37.602Z,15.80
2018-08-28T02:22:05.390Z,15.80
2018-08-28T02:24:33.056Z,15.80
2018-08-28T02:27:00.870Z,15.80
2018-08-28T02:29:28.564Z,15.80
2018-08-28T02:31:56.319Z,15.80
2018-08-28T02:34:24.120Z,15.80
2018-08-28T02:36:51.837Z,15.70
2018-08-28T02:39:19.609Z,15.70
2018-08-28T02:41:47.322Z,15.70
2018-08-28T02:44:15.688Z,15.60
2018-08-28T02:46:43.449Z,15.60
2018-08-28T02:49:11.056Z,15.60
2018-08-28T02:51:38.874Z,15.50
2018-08-28T02:54:06.618Z,15.50
2018-08-28T02:56:34.338Z,15.40
2018-08-28T02:59:02.012Z,15.40
2018-08-28T03:01:29.658Z,15.30
2018-08-28T03:03:57.422Z,15.20
2018-08-28T03:06:25.110Z,15.20
2018-08-28T03:08:52.808Z,15.10
2018-08-28T03:11:20.586Z,15.10
2018-08-28T03:13:48.296Z,15.10
2018-08-28T03:16:15.982Z,15.00
2018-08-28T03:18:43.826Z,15.00
2018-08-28T03:21:11.722Z,14.90
2018-08-28T03:23:39.786Z,14.90
2018-08-28T03:26:08.150Z,14.90
2018-08-28T03:28:35.824Z,14.90
2018-08-28T03:31:03.472Z,15.00
2018-08-28T03:33:31.104Z,15.00
2018-08-28T03:35:58.822Z,15.00
2018-08-28T03:38:26.539Z,14.90
2018-08-28T03:40:54.265Z,14.90
2018-08-28T03:43:21.985Z,14.90
2018-08-28T03:45:49.667Z,14.80
2018-08-28T03:48:17.467Z,14.80
2018-08-28T03:50:45.112Z,14.70
2018-08-28T03:53:12.956Z,14.70
2018-08-28T03:55:40.709Z,14.60
2018-08-28T03:58:08.947Z,14.60
2018-08-28T04:00:36.600Z,14.50
2018-08-28T04:03:04.245Z,14.50
2018-08-28T04:05:31.981Z,14.40
2018-08-28T04:07:59.648Z,14.40
2018-08-28T04:10:28.013Z,14.40
2018-08-28T04:12:55.891Z,14.40
2018-08-28T04:15:23.625Z,14.40
2018-08-28T04:17:51.290Z,14.30
2018-08-28T04:20:20.475Z,14.30
2018-08-28T04:22:48.196Z,14.30
2018-08-28T04:25:17.062Z,14.20
2018-08-28T04:27:45.458Z,14.20
2018-08-28T04:30:13.175Z,14.20
2018-08-28T04:32:40.935Z,14.20
2018-08-28T04:35:08.620Z,14.20
2018-08-28T04:37:36.312Z,14.10
2018-08-28T04:40:04.677Z,14.00
2018-08-28T04:42:32.601Z,14.00
2018-08-28T04:45:00.511Z,14.00
2018-08-28T04:47:28.221Z,14.00
2018-08-28T04:49:55.917Z,14.00
2018-08-28T04:52:23.746Z,14.10
2018-08-28T04:54:51.547Z,14.10
2018-08-28T04:57:19.306Z,14.10
2018-08-28T04:59:47.289Z,14.10
2018-08-28T05:02:15.022Z,14.20
2018-08-28T05:04:42.762Z,14.20
2018-08-28T05:07:10.502Z,14.30
2018-08-28T05:09:38.153Z,14.40
2018-08-28T05:12:05.855Z,14.50
2018-08-28T05:14:33.958Z,14.60
2018-08-28T05:17:01.814Z,14.70
2018-08-28T05:19:29.588Z,14.80
2018-08-28T05:21:57.383Z,14.90
2018-08-28T05:24:25.039Z,15.00
2018-08-28T05:26:52.846Z,15.20
2018-08-28T05:29:20.610Z,15.40
2018-08-28T05:34:23.087Z,16.20
2018-08-28T05:36:51.009Z,17.10
2018-08-28T05:39:18.815Z,18.20
2018-08-28T05:41:46.605Z,19.50
2018-08-28T05:44:14.229Z,20.70
2018-08-28T05:46:41.926Z,21.80
2018-08-28T05:49:09.673Z,23.00
2018-08-28T05:51:37.571Z,23.80
2018-08-28T05:54:05.346Z,24.50
2018-08-28T05:56:33.341Z,25.10
2018-08-28T05:59:01.065Z,25.70
2018-08-28T06:01:29.026Z,26.00
2018-08-28T06:03:56.718Z,26.50
2018-08-28T06:06:24.501Z,26.60
2018-08-28T06:08:52.210Z,26.90
2018-08-28T06:11:19.957Z,27.10
2018-08-28T06:13:47.766Z,27.20
2018-08-28T06:16:15.421Z,27.10
2018-08-28T06:18:43.243Z,27.10
2018-08-28T06:21:10.961Z,26.90
2018-08-28T06:23:38.685Z,26.90
2018-08-28T06:26:06.556Z,26.60
2018-08-28T06:28:34.201Z,26.20
2018-08-28T06:31:01.897Z,26.00
2018-08-28T06:33:29.736Z,25.80
2018-08-28T06:35:57.426Z,25.60
2018-08-28T06:38:25.115Z,25.40
2018-08-28T06:40:52.901Z,25.40
2018-08-28T06:43:20.673Z,25.40
2018-08-28T06:45:48.311Z,25.40
2018-08-28T06:48:16.409Z,25.40
2018-08-28T06:50:45.981Z,25.40
2018-08-28T06:53:13.691Z,25.40
2018-08-28T06:55:41.405Z,25.40
2018-08-28T06:58:09.079Z,25.40
2018-08-28T07:00:36.820Z,25.50
2018-08-28T07:03:04.617Z,25.50
2018-08-28T07:05:32.500Z,25.60
2018-08-28T07:08:00.378Z,25.80
2018-08-28T07:10:28.165Z,25.90
2018-08-28T07:12:55.895Z,26.10
2018-08-28T07:15:23.615Z,26.50
2018-08-28T07:17:53.419Z,27.00
2018-08-28T07:20:21.165Z,27.10
2018-08-28T07:22:48.909Z,27.40
2018-08-28T07:25:16.689Z,27.80
2018-08-28T07:27:45.237Z,28.20
2018-08-28T07:30:13.443Z,28.60
2018-08-28T07:32:41.214Z,29.00
2018-08-28T07:35:08.902Z,29.20
2018-08-28T07:37:36.586Z,29.50
2018-08-28T07:40:04.908Z,29.70
2018-08-28T07:42:32.558Z,29.90
2018-08-28T07:45:00.256Z,30.20
2018-08-28T07:47:28.038Z,30.40
2018-08-28T07:49:55.730Z,30.70
2018-08-28T07:52:23.437Z,31.00
2018-08-28T07:54:51.150Z,31.30
2018-08-28T07:57:18.940Z,31.50
2018-08-28T07:59:46.674Z,32.20
2018-08-28T08:02:14.367Z,32.90
2018-08-28T08:04:42.053Z,33.70
2018-08-28T08:07:09.700Z,34.00
2018-08-28T08:09:37.365Z,34.30
2018-08-28T08:12:05.328Z,34.90
2018-08-28T08:14:32.992Z,35.40
2018-08-28T08:17:00.845Z,35.90
2018-08-28T08:19:28.527Z,36.10
2018-08-28T08:21:56.294Z,35.50
2018-08-28T08:24:23.965Z,35.70
2018-08-28T08:26:51.662Z,36.70
2018-08-28T08:29:19.318Z,37.40
2018-08-28T08:31:47.080Z,38.40
2018-08-28T08:34:14.789Z,38.80
2018-08-28T08:36:42.685Z,38.90
2018-08-28T08:39:10.950Z,38.80
2018-08-28T08:41:39.307Z,38.70
2018-08-28T08:44:06.996Z,38.70
2018-08-28T08:46:34.771Z,38.80
2018-08-28T08:49:02.505Z,38.50
2018-08-28T08:51:30.275Z,38.00
2018-08-28T08:53:57.924Z,38.00
2018-08-28T08:56:25.635Z,36.70
2018-08-28T08:58:53.384Z,35.10
2018-08-28T09:01:21.571Z,33.70
2018-08-28T09:03:49.252Z,32.40
2018-08-28T09:06:17.027Z,30.90
2018-08-28T09:08:44.722Z,29.90
2018-08-28T09:11:12.653Z,28.90
2018-08-28T09:13:40.392Z,28.30
2018-08-28T09:16:08.108Z,28.00
2018-08-28T09:18:35.829Z,27.80
2018-08-28T09:21:03.585Z,27.40
2018-08-28T09:23:31.268Z,27.10
2018-08-28T09:25:59.001Z,26.80
2018-08-28T09:28:26.731Z,26.70
2018-08-28T09:30:54.533Z,26.60
2018-08-28T09:33:22.364Z,26.50
2018-08-28T09:35:50.057Z,26.60
2018-08-28T09:38:17.772Z,26.60
2018-08-28T09:40:45.538Z,26.60
2018-08-28T09:43:13.257Z,26.70
2018-08-28T09:45:40.938Z,26.80
2018-08-28T09:48:08.716Z,26.90
2018-08-28T09:50:36.547Z,27.00
2018-08-28T09:53:04.250Z,27.20
2018-08-28T09:55:32.038Z,27.30
2018-08-28T09:57:59.794Z,27.30
2018-08-28T10:00:28.631Z,27.40
2018-08-28T10:02:57.265Z,27.40
2018-08-28T10:05:24.999Z,27.40
2018-08-28T10:07:52.783Z,27.50
2018-08-28T10:10:20.564Z,27.40
2018-08-28T10:12:48.275Z,27.30
2018-08-28T10:15:16.109Z,27.50
2018-08-28T10:17:43.881Z,27.60
2018-08-28T10:20:11.935Z,27.60
2018-08-28T10:22:39.829Z,27.50
2018-08-28T10:25:07.884Z,27.50
2018-08-28T10:27:35.580Z,27.50
2018-08-28T10:30:03.438Z,27.40
2018-08-28T10:32:31.131Z,27.30
2018-08-28T10:34:58.836Z,27.20
2018-08-28T10:37:26.765Z,27.20
2018-08-28T10:39:54.423Z,27.20
2018-08-28T10:42:22.125Z,27.20
2018-08-28T10:44:49.835Z,27.00
2018-08-28T10:47:17.569Z,26.80
2018-08-28T10:49:45.269Z,26.70
2018-08-28T10:52:13.177Z,26.70
2018-08-28T10:54:40.924Z,26.50
2018-08-28T10:57:08.651Z,26.30
2018-08-28T10:59:36.471Z,26.00
2018-08-28T11:02:04.159Z,25.80
2018-08-28T11:04:31.926Z,25.50
2018-08-28T11:06:59.636Z,25.40
2018-08-28T11:09:27.346Z,25.30
2018-08-28T11:11:55.041Z,25.20
2018-08-28T11:14:22.940Z,25.10
2018-08-28T11:16:50.686Z,24.90
2018-08-28T11:19:18.441Z,24.80
2018-08-28T11:21:46.384Z,24.80
2018-08-28T11:24:14.045Z,24.80
2018-08-28T11:26:41.785Z,24.80
2018-08-28T11:29:09.460Z,24.90
2018-08-28T11:31:37.180Z,25.00
2018-08-28T11:34:04.918Z,25.00
2018-08-28T11:36:32.735Z,25.00
2018-08-28T11:39:00.478Z,25.00
2018-08-28T11:41:28.210Z,25.10
2018-08-28T11:43:55.970Z,25.00
2018-08-28T11:46:23.688Z,25.00
2018-08-28T11:48:51.444Z,25.00
2018-08-28T11:51:19.388Z,24.90
2018-08-28T11:53:47.039Z,24.90
2018-08-28T11:56:14.900Z,25.00
2018-08-28T11:58:42.594Z,24.90
2018-08-28T12:01:10.393Z,24.70
2018-08-28T12:03:38.160Z,24.70
2018-08-28T12:06:05.842Z,24.70
2018-08-28T12:08:33.541Z,24.80
2018-08-28T12:11:01.219Z,24.80
2018-08-28T12:13:28.971Z,24.80
2018-08-28T12:15:56.774Z,24.70
2018-08-28T12:18:24.437Z,24.60
2018-08-28T12:20:52.331Z,24.60
2018-08-28T12:23:19.897Z,24.60
2018-08-28T12:25:47.639Z,24.70
2018-08-28T12:28:15.314Z,24.60
2018-08-28T12:30:43.125Z,24.60
2018-08-28T12:33:10.761Z,24.60
2018-08-28T12:35:38.529Z,24.60
2018-08-28T12:38:06.309Z,24.60
2018-08-28T12:40:34.023Z,24.60
2018-08-28T12:43:01.814Z,24.60
2018-08-28T12:45:29.605Z,24.70
2018-08-28T12:47:57.279Z,24.70
2018-08-28T12:50:25.065Z,24.80
2018-08-28T12:52:52.789Z,24.80
2018-08-28T12:55:20.457Z,24.80
2018-08-28T12:57:48.307Z,24.80
2018-08-28T13:00:16.111Z,24.70
2018-08-28T13:02:43.836Z,24.70
2018-08-28T13:05:11.609Z,24.60
2018-08-28T13:07:39.310Z,24.60
2018-08-28T13:10:07.076Z,24.60
2018-08-28T13:12:34.767Z,24.60
2018-08-28T13:15:02.614Z,24.60
2018-08-28T13:17:30.451Z,24.70
2018-08-28T13:19:58.291Z,24.50
2018-08-28T13:22:26.137Z,24.30
2018-08-28T13:24:53.874Z,24.20
2018-08-28T13:27:21.604Z,24.10
2018-08-28T13:29:49.381Z,24.20
2018-08-28T13:32:17.033Z,24.30
2018-08-28T13:34:44.691Z,24.40
2018-08-28T13:37:12.370Z,24.40
2018-08-28T13:39:40.033Z,24.60
2018-08-28T13:42:08.268Z,24.70
2018-08-28T13:44:35.994Z,24.80
2018-08-28T13:47:03.880Z,24.90
2018-08-28T13:49:31.542Z,25.00
2018-08-28T13:51:59.360Z,25.30
2018-08-28T13:54:27.104Z,25.30
2018-08-28T13:56:54.838Z,25.50
2018-08-28T13:59:22.568Z,25.60
2018-08-28T14:01:50.201Z,25.70
2018-08-28T14:04:18.000Z,25.80
2018-08-28T14:06:45.872Z,25.70
2018-08-28T14:09:13.651Z,25.80
2018-08-28T14:11:41.698Z,25.70
2018-08-28T14:14:09.412Z,25.60
2018-08-28T14:16:43.785Z,25.40
2018-08-28T14:19:11.618Z,25.40
2018-08-28T14:21:39.303Z,25.30
2018-08-28T14:24:07.035Z,25.30
2018-08-28T14:26:34.896Z,25.30
2018-08-28T14:29:02.639Z,25.20
2018-08-28T14:31:30.471Z,25.20
2018-08-28T14:33:58.553Z,25.20
2018-08-28T14:36:26.398Z,25.20
2018-08-28T14:38:54.234Z,25.20
2018-08-28T14:41:22.261Z,25.10
2018-08-28T14:43:49.906Z,25.10
2018-08-28T14:46:17.618Z,25.10
2018-08-28T14:48:45.350Z,25.00
2018-08-28T14:51:13.142Z,25.10
2018-08-28T14:53:42.034Z,25.00
2018-08-28T14:56:09.964Z,24.90
2018-08-28T14:58:38.118Z,24.90
2018-08-28T15:01:06.453Z,24.90
2018-08-28T15:03:34.188Z,24.90
2018-08-28T15:06:02.063Z,24.80
2018-08-28T15:08:29.857Z,24.80
2018-08-28T15:10:57.679Z,24.90
2018-08-28T15:13:25.454Z,24.90
2018-08-28T15:15:53.270Z,24.80
2018-08-28T15:18:21.053Z,24.80
2018-08-28T15:20:48.808Z,24.80
2018-08-28T15:23:16.866Z,24.80
2018-08-28T15:25:44.638Z,24.80
2018-08-28T15:28:12.398Z,24.80
2018-08-28T15:30:40.230Z,24.80
2018-08-28T15:33:07.897Z,24.80
2018-08-28T15:35:35.675Z,24.80
2018-08-28T15:38:03.406Z,24.80
2018-08-28T15:40:31.107Z,24.70
2018-08-28T15:42:58.825Z,24.70
2018-08-28T15:45:26.757Z,24.70
2018-08-28T15:47:54.490Z,24.70
2018-08-28T15:50:22.257Z,24.70
2018-08-28T15:52:49.998Z,24.60
2018-08-28T15:55:17.809Z,24.60
2018-08-28T15:57:45.529Z,24.60
2018-08-28T16:00:13.488Z,24.60
2018-08-28T16:02:41.358Z,24.60
2018-08-28T16:05:09.071Z,24.50
2018-08-28T16:07:36.907Z,24.50
2018-08-28T16:10:05.086Z,24.60
2018-08-28T16:12:32.805Z,24.50
2018-08-28T16:15:00.550Z,24.50
2018-08-28T16:17:28.263Z,24.40
2018-08-28T16:19:56.000Z,24.40
2018-08-28T16:22:34.355Z,24.40
2018-08-28T16:25:02.290Z,24.30
2018-08-28T16:27:29.990Z,24.30
2018-08-28T16:29:57.738Z,24.30
2018-08-28T16:32:25.540Z,24.20
2018-08-28T16:34:53.443Z,24.20
2018-08-28T16:37:21.168Z,24.20
2018-08-28T16:39:48.842Z,24.20
2018-08-28T16:42:16.731Z,24.10
2018-08-28T16:44:44.617Z,24.10
2018-08-28T16:47:12.362Z,24.10
2018-08-28T16:49:40.268Z,24.00
2018-08-28T16:52:09.000Z,23.90
2018-08-28T16:54:37.118Z,23.90
2018-08-28T16:57:05.085Z,23.90
2018-08-28T16:59:32.754Z,23.80
2018-08-28T17:02:00.671Z,23.80
2018-08-28T17:04:28.387Z,23.70
2018-08-28T17:06:56.127Z,23.70
2018-08-28T17:09:23.930Z,23.60
2018-08-28T17:11:51.669Z,23.50
2018-08-28T17:14:19.557Z,23.50
2018-08-28T17:16:48.545Z,23.40
2018-08-28T17:19:16.507Z,23.40
2018-08-28T17:21:44.276Z,23.30
2018-08-28T17:24:12.237Z,23.20
2018-08-28T17:26:40.261Z,23.20
2018-08-28T17:29:08.126Z,23.10
2018-08-28T17:31:36.249Z,23.00
2018-08-28T17:34:04.025Z,23.00
2018-08-28T17:36:32.143Z,23.00
2018-08-28T17:38:59.913Z,22.90
2018-08-28T17:41:27.713Z,22.80
2018-08-28T17:43:55.453Z,22.80
2018-08-28T17:46:23.283Z,22.70
2018-08-28T17:48:52.098Z,22.70
2018-08-28T17:51:19.932Z,22.60
2018-08-28T17:53:47.662Z,22.50
2018-08-28T17:56:15.432Z,22.50
2018-08-28T17:58:46.069Z,22.40
2018-08-28T18:01:24.337Z,22.40
2018-08-28T18:03:53.883Z,22.30
2018-08-28T18:06:21.724Z,22.20
2018-08-28T18:08:54.402Z,22.20
2018-08-28T18:11:22.194Z,22.10
2018-08-28T18:13:49.930Z,22.00
2018-08-28T18:16:17.886Z,22.00
2018-08-28T18:18:45.682Z,21.90
2018-08-28T18:21:16.556Z,21.80
2018-08-28T18:23:47.831Z,21.80
2018-08-28T18:26:15.999Z,21.70
2018-08-28T18:28:44.031Z,21.70
2018-08-28T18:31:13.277Z,21.60
2018-08-28T18:33:41.165Z,21.50
2018-08-28T18:36:09.057Z,21.50
2018-08-28T18:38:36.761Z,21.40
2018-08-28T18:41:05.212Z,21.40
2018-08-28T18:43:32.716Z,21.30
2018-08-28T18:46:00.517Z,21.30
2018-08-28T18:48:28.215Z,21.20
2018-08-28T18:50:55.976Z,21.20
2018-08-28T18:53:23.647Z,21.10
2018-08-28T18:55:51.381Z,21.10
2018-08-28T18:58:19.120Z,21.10
2018-08-28T19:00:46.913Z,21.00
2018-08-28T19:03:14.572Z,21.00
2018-08-28T19:05:42.435Z,20.90
2018-08-28T19:08:10.230Z,20.90
2018-08-28T19:10:38.063Z,20.80
2018-08-28T19:13:05.806Z,20.80
2018-08-28T19:15:33.728Z,20.70
2018-08-28T19:18:01.435Z,20.70
2018-08-28T19:20:29.234Z,20.70
2018-08-28T19:22:56.977Z,20.60
2018-08-28T19:25:24.780Z,20.60
2018-08-28T19:27:52.502Z,20.60
2018-08-28T19:30:20.402Z,20.60
2018-08-28T19:32:48.165Z,20.50
2018-08-28T19:35:16.111Z,20.50
2018-08-28T19:37:43.934Z,20.40
2018-08-28T19:40:11.857Z,20.30
2018-08-28T19:42:39.612Z,20.30
2018-08-28T19:45:07.374Z,20.20
2018-08-28T19:47:35.096Z,20.20
2018-08-28T19:50:03.054Z,20.10
2018-08-28T19:52:30.775Z,20.10
2018-08-28T19:54:58.546Z,20.00
2018-08-28T19:57:26.514Z,20.00
2018-08-28T19:59:54.613Z,19.90
2018-08-28T20:02:22.281Z,19.90
2018-08-28T20:04:50.018Z,19.90
2018-08-28T20:07:17.754Z,19.80
2018-08-28T20:09:45.458Z,19.80
2018-08-28T20:12:13.198Z,19.70
2018-08-28T20:14:41.090Z,19.60
2018-08-28T20:17:08.865Z,19.60
2018-08-28T20:19:36.782Z,19.50
2018-08-28T20:22:07.590Z,19.50
2018-08-28T20:24:35.365Z,19.40
2018-08-28T20:27:03.095Z,19.40
2018-08-28T20:29:30.909Z,19.40
2018-08-28T20:31:58.618Z,19.40
2018-08-28T20:34:26.325Z,19.30
2018-08-28T20:36:54.316Z,19.30
2018-08-28T20:39:22.030Z,19.20
2018-08-28T20:41:49.809Z,19.20
2018-08-28T20:44:17.537Z,19.20
2018-08-28T20:46:45.246Z,19.20
2018-08-28T20:49:12.972Z,19.10
2018-08-28T20:51:41.658Z,19.10
2018-08-28T20:54:09.396Z,19.00
2018-08-28T20:56:37.477Z,19.00
2018-08-28T20:59:05.574Z,19.00
2018-08-28T21:01:33.614Z,18.90
2018-08-28T21:04:01.366Z,18.90
2018-08-28T21:06:29.151Z,18.90
2018-08-28T21:08:57.010Z,18.90
2018-08-28T21:11:24.702Z,18.80
2018-08-28T21:13:53.746Z,18.80
2018-08-28T21:16:21.428Z,18.80
2018-08-28T21:18:49.780Z,18.80
2018-08-28T21:21:18.952Z,18.70
2018-08-28T21:23:46.954Z,18.70
2018-08-28T21:26:14.962Z,18.60
2018-08-28T21:28:42.738Z,18.60
2018-08-28T21:31:10.555Z,18.50
2018-08-28T21:33:38.474Z,18.40
2018-08-28T21:36:06.406Z,18.40
2018-08-28T21:38:34.210Z,18.30
2018-08-28T21:41:02.071Z,18.30
2018-08-28T21:43:29.787Z,18.30
2018-08-28T21:45:57.577Z,18.20
2018-08-28T21:48:25.497Z,18.20
2018-08-28T21:50:53.141Z,18.20
2018-08-28T21:53:21.043Z,18.20
2018-08-28T21:55:48.719Z,18.20
2018-08-28T21:58:16.520Z,18.20
2018-08-28T22:00:49.029Z,18.10
2018-08-28T22:03:16.853Z,18.10
2018-08-28T22:05:44.655Z,18.00
2018-08-28T22:08:12.405Z,17.90
2018-08-28T22:10:40.109Z,17.90
2018-08-28T22:13:08.023Z,17.90
2018-08-28T22:15:35.817Z,17.80
2018-08-28T22:18:03.638Z,17.80
2018-08-28T22:20:31.528Z,17.80
2018-08-28T22:22:59.260Z,17.70
2018-08-28T22:25:27.090Z,17.70
2018-08-28T22:27:54.876Z,17.70
2018-08-28T22:30:22.754Z,17.50
2018-08-28T22:32:50.588Z,17.60
2018-08-28T22:35:18.374Z,17.50
2018-08-28T22:37:46.112Z,17.50
2018-08-28T22:40:13.893Z,17.50
2018-08-28T22:42:41.826Z,17.50
2018-08-28T22:45:09.803Z,17.40
2018-08-28T22:47:37.481Z,17.40
2018-08-28T22:50:05.964Z,17.40
2018-08-28T22:52:33.609Z,17.40
2018-08-28T22:55:01.632Z,17.40
2018-08-28T22:57:29.335Z,17.30
2018-08-28T22:59:57.035Z,17.30
2018-08-28T23:02:24.697Z,17.30
2018-08-28T23:04:52.390Z,17.30
2018-08-28T23:07:20.111Z,17.20
2018-08-28T23:09:47.748Z,17.20
2018-08-28T23:12:15.591Z,17.20
2018-08-28T23:14:43.275Z,17.20
2018-08-28T23:17:10.921Z,17.10
2018-08-28T23:19:38.744Z,17.10
2018-08-28T23:22:06.433Z,17.00
2018-08-28T23:24:34.163Z,17.00
2018-08-28T23:27:01.873Z,17.00
2018-08-28T23:29:29.620Z,17.00
2018-08-28T23:31:57.280Z,17.00
2018-08-28T23:34:25.004Z,16.90
2018-08-28T23:36:52.694Z,16.90
2018-08-28T23:39:20.354Z,16.90
2018-08-28T23:41:48.111Z,16.90
2018-08-28T23:44:15.826Z,16.90
2018-08-28T23:46:43.513Z,16.80
2018-08-28T23:49:11.275Z,16.80
2018-08-28T23:51:39.169Z,16.80
2018-08-28T23:54:06.884Z,16.80
2018-08-28T23:56:34.662Z,16.80
2018-08-28T23:59:02.360Z,16.70
